createdAt,value
2019-04-03T00:04:10.715Z,100317.17
2019-04-03T00:09:16.629Z,100321.00
2019-04-03T00:14:22.568Z,100313.17
2019-04-03T00:19:28.470Z,100312.04
2019-04-03T00:24:34.449Z,100296.50
2019-04-03T00:29:41.586Z,100300.56
2019-04-03T00:34:47.581Z,100293.20
2019-04-03T00:39:54.502Z,100294.61
2019-04-03T00:45:00.581Z,100292.58
2019-04-03T00:50:07.463Z,100285.80
2019-04-03T00:55:13.447Z,100291.54
2019-04-03T01:00:20.315Z,100285.91
2019-04-03T01:05:28.183Z,100278.27
2019-04-03T01:10:33.952Z,100288.97
2019-04-03T01:15:39.877Z,100284.98
2019-04-03T01:20:45.866Z,100286.49
2019-04-03T01:25:51.780Z,100283.85
2019-04-03T01:30:57.831Z,100292.84
2019-04-03T01:36:03.739Z,100283.03
2019-04-03T01:41:09.738Z,100277.27
2019-04-03T01:46:15.622Z,100284.24
2019-04-03T01:51:21.902Z,100273.59
2019-04-03T01:56:27.777Z,100266.81
2019-04-03T02:01:33.741Z,100270.66
2019-04-03T02:06:39.715Z,100266.53
2019-04-03T02:11:45.754Z,100271.03
2019-04-03T02:16:53.492Z,100266.03
2019-04-03T02:21:59.286Z,100258.67
2019-04-03T02:27:05.124Z,100266.68
2019-04-03T02:32:11.100Z,100257.03
2019-04-03T02:37:17.756Z,100249.00
2019-04-03T02:42:24.031Z,100243.59
2019-04-03T02:47:33.486Z,100248.05
2019-04-03T02:52:38.797Z,100246.76
2019-04-03T02:57:48.383Z,100255.02
2019-04-03T03:02:52.511Z,100252.53
2019-04-03T03:07:58.447Z,100244.55
2019-04-03T03:13:04.963Z,100239.61
2019-04-03T03:18:11.499Z,100241.91
2019-04-03T03:23:17.502Z,100238.93
2019-04-03T03:28:24.928Z,100231.98
2019-04-03T03:33:37.317Z,100227.14
2019-04-03T03:38:40.895Z,100230.16
2019-04-03T03:43:47.159Z,100223.55
2019-04-03T03:48:54.006Z,100223.23
2019-04-03T03:54:01.191Z,100219.93
2019-04-03T03:59:07.738Z,100214.94
2019-04-03T04:04:15.632Z,100210.63
2019-04-03T04:09:21.811Z,100214.94
2019-04-03T04:14:28.344Z,100218.30
2019-04-03T04:19:36.771Z,100209.64
2019-04-03T04:24:42.926Z,100195.05
2019-04-03T04:29:48.987Z,100195.05
2019-04-03T04:34:55.070Z,100196.53
2019-04-03T04:40:01.182Z,100194.05
2019-04-03T04:45:08.100Z,100190.73
2019-04-03T04:50:16.847Z,100190.73
2019-04-03T04:55:22.854Z,100196.70
2019-04-03T05:00:30.309Z,100194.05
2019-04-03T05:05:36.282Z,100197.20
2019-04-03T05:10:42.331Z,100177.89
2019-04-03T05:15:48.456Z,100206.66
2019-04-03T05:20:54.361Z,100217.92
2019-04-03T05:26:01.891Z,100220.28
2019-04-03T05:31:08.886Z,100226.25
2019-04-03T05:36:17.239Z,100221.58
2019-04-03T05:41:23.017Z,100222.44
2019-04-03T05:46:29.120Z,100214.96
2019-04-03T05:51:34.906Z,100230.74
2019-04-03T05:56:42.999Z,100225.09
2019-04-03T06:01:49.235Z,100231.06
2019-04-03T06:06:55.313Z,100231.06
2019-04-03T06:12:01.171Z,100238.33
2019-04-03T06:17:07.083Z,100225.86
2019-04-03T06:22:34.649Z,100226.39
2019-04-03T06:27:42.161Z,100223.51
2019-04-03T06:32:49.222Z,100230.80
2019-04-03T06:37:55.418Z,100228.30
2019-04-03T06:43:01.298Z,100231.30
2019-04-03T06:48:07.373Z,100234.80
2019-04-03T06:53:14.162Z,100238.19
2019-04-03T06:58:20.046Z,100233.33
2019-04-03T07:03:26.081Z,100248.61
2019-04-03T07:08:35.659Z,100251.43
2019-04-03T07:13:39.562Z,100253.41
2019-04-03T07:18:45.602Z,100260.72
2019-04-03T07:23:51.258Z,100270.28
2019-04-03T07:28:56.911Z,100262.55
2019-04-03T07:34:03.530Z,100266.23
2019-04-03T07:39:11.039Z,100260.66
2019-04-03T07:44:17.055Z,100262.70
2019-04-03T07:49:23.241Z,100257.03
2019-04-03T07:54:29.475Z,100257.55
2019-04-03T07:59:35.740Z,100259.48
2019-04-03T08:04:41.771Z,100251.70
2019-04-03T08:09:48.687Z,100254.98
2019-04-03T08:14:54.641Z,100250.92
2019-04-03T08:20:01.569Z,100259.83
2019-04-03T08:25:12.125Z,100261.90
2019-04-03T08:30:16.985Z,100251.97
2019-04-03T08:35:24.321Z,100241.84
2019-04-03T08:40:30.455Z,100244.61
2019-04-03T08:45:38.397Z,100248.02
2019-04-03T08:50:44.955Z,100241.66
2019-04-03T08:55:50.819Z,100251.19
2019-04-03T09:00:57.112Z,100248.11
2019-04-03T09:06:03.284Z,100245.78
2019-04-03T09:11:09.769Z,100241.54
2019-04-03T09:16:16.664Z,100232.80
2019-04-03T09:21:23.903Z,100222.06
2019-04-03T09:26:29.999Z,100217.33
2019-04-03T09:31:37.716Z,100208.45
2019-04-03T09:36:43.998Z,100205.86
2019-04-03T09:41:58.287Z,100195.36
2019-04-03T09:47:04.184Z,100195.55
2019-04-03T09:52:10.746Z,100193.38
2019-04-03T09:57:16.845Z,100179.85
2019-04-03T10:02:23.021Z,100178.73
2019-04-03T10:07:31.170Z,100166.55
2019-04-03T10:12:37.013Z,100156.02
2019-04-03T10:17:43.246Z,100151.40
2019-04-03T10:22:49.555Z,100150.95
2019-04-03T10:27:55.441Z,100151.99
2019-04-03T10:33:02.013Z,100142.26
2019-04-03T10:38:09.148Z,100143.76
2019-04-03T10:43:15.179Z,100140.80
2019-04-03T10:48:22.551Z,100137.56
2019-04-03T10:53:29.792Z,100140.90
2019-04-03T10:58:37.939Z,100130.33
2019-04-03T11:03:43.302Z,100126.01
2019-04-03T11:08:49.480Z,100118.61
2019-04-03T11:13:55.537Z,100114.63
2019-04-03T11:19:05.092Z,100110.98
2019-04-03T11:24:11.304Z,100104.72
2019-04-03T11:29:17.205Z,100102.42
2019-04-03T11:34:23.541Z,100096.05
2019-04-03T11:39:29.989Z,100092.34
2019-04-03T11:44:35.864Z,100089.39
2019-04-03T11:49:42.247Z,100086.39
2019-04-03T11:54:48.229Z,100076.80
2019-04-03T11:59:57.064Z,100077.42
2019-04-03T12:05:03.696Z,100078.17
2019-04-03T12:10:10.300Z,100074.29
2019-04-03T12:15:16.577Z,100058.64
2019-04-03T12:20:22.641Z,100061.77
2019-04-03T12:25:30.047Z,100054.34
2019-04-03T12:30:35.959Z,100051.61
2019-04-03T12:35:42.846Z,100044.33
2019-04-03T12:40:49.087Z,100048.22
2019-04-03T12:45:58.074Z,100040.47
2019-04-03T12:51:03.648Z,100036.95
2019-04-03T12:56:09.715Z,100028.31
2019-04-03T13:01:17.710Z,100018.08
2019-04-03T13:06:23.477Z,100026.54
2019-04-03T13:11:32.820Z,100020.39
2019-04-03T13:16:37.980Z,100012.32
2019-04-03T13:21:43.888Z,100003.74
2019-04-03T13:26:49.830Z,100001.23
2019-04-03T13:31:56.166Z,99995.44
2019-04-03T13:37:02.269Z,99993.58
2019-04-03T13:42:08.388Z,99990.23
2019-04-03T13:47:14.253Z,99982.77
2019-04-03T13:52:20.196Z,99974.59
2019-04-03T13:57:26.480Z,99966.77
2019-04-03T14:02:32.346Z,99958.83
2019-04-03T14:07:41.660Z,99960.07
2019-04-03T14:12:45.903Z,99957.27
2019-04-03T14:17:56.469Z,99943.97
2019-04-03T14:23:02.894Z,99939.09
2019-04-03T14:28:08.208Z,99930.16
2019-04-03T14:33:14.031Z,99945.26
2019-04-03T14:38:20.042Z,99926.92
2019-04-03T14:43:25.871Z,99933.68
2019-04-03T14:48:31.860Z,99909.61
2019-04-03T14:53:37.920Z,99915.95
2019-04-03T14:58:44.029Z,99919.05
2019-04-03T15:03:50.130Z,99922.91
2019-04-03T15:08:56.352Z,99913.80
2019-04-03T15:14:02.238Z,99910.26
2019-04-03T15:19:08.392Z,99900.16
2019-04-03T15:24:14.324Z,99894.26
2019-04-03T15:29:20.309Z,99893.81
2019-04-03T15:34:27.638Z,99895.16
2019-04-03T15:39:34.330Z,99887.31
2019-04-03T15:44:40.526Z,99889.52
2019-04-03T15:49:46.811Z,99882.34
2019-04-03T15:54:53.201Z,99875.39
2019-04-03T16:00:01.798Z,99879.65
2019-04-03T16:05:08.765Z,99873.97
2019-04-03T16:10:14.896Z,99875.46
2019-04-03T16:15:22.740Z,99877.41
2019-04-03T16:20:28.918Z,99878.13
2019-04-03T16:25:34.924Z,99868.79
2019-04-03T16:30:40.805Z,99871.77
2019-04-03T16:35:46.825Z,99870.92
2019-04-03T16:40:53.270Z,99870.48
2019-04-03T16:45:59.536Z,99871.22
2019-04-03T16:51:05.757Z,99861.91
2019-04-03T16:56:12.072Z,99863.87
2019-04-03T17:01:18.436Z,99861.56
2019-04-03T17:06:24.626Z,99852.86
2019-04-03T17:11:30.592Z,99853.31
2019-04-03T17:16:37.380Z,99849.30
2019-04-03T17:21:44.365Z,99852.62
2019-04-03T17:26:56.113Z,99855.69
2019-04-03T17:31:58.875Z,99847.45
2019-04-03T17:37:06.529Z,99847.64
2019-04-03T17:42:13.610Z,99843.14
2019-04-03T17:47:21.012Z,99851.30
2019-04-03T17:52:29.052Z,99852.02
2019-04-03T17:57:35.618Z,99861.55
2019-04-03T18:02:43.880Z,99863.05
2019-04-03T18:07:50.995Z,99860.36
2019-04-03T18:13:00.033Z,99866.20
2019-04-03T18:18:07.507Z,99871.91
2019-04-03T18:23:14.200Z,99869.34
2019-04-03T18:28:23.890Z,99867.98
2019-04-03T18:33:31.777Z,99875.42
2019-04-03T18:38:42.532Z,99881.83
2019-04-03T18:43:54.190Z,99882.16
2019-04-03T18:49:01.527Z,99875.18
2019-04-03T18:54:09.780Z,99878.34
2019-04-03T18:59:16.547Z,99877.23
2019-04-03T19:04:25.037Z,99875.55
2019-04-03T19:09:33.004Z,99879.87
2019-04-03T19:14:42.942Z,99865.97
2019-04-03T19:19:51.325Z,99867.84
2019-04-03T19:25:01.740Z,99858.91
2019-04-03T19:30:09.162Z,99857.41
2019-04-03T19:41:09.920Z,99854.48
2019-04-03T19:46:22.725Z,99851.20
2019-04-03T19:51:28.773Z,99847.73
2019-04-03T19:56:47.001Z,99843.45
2019-04-03T20:01:57.091Z,99839.25
2019-04-03T20:07:08.199Z,99836.08
2019-04-03T20:12:15.313Z,99837.23
2019-04-03T20:17:22.790Z,99833.23
2019-04-03T20:22:31.884Z,99819.05
2019-04-03T20:27:38.398Z,99823.70
2019-04-03T20:32:44.996Z,99821.17
2019-04-03T20:37:51.465Z,99824.89
2019-04-03T20:42:57.938Z,99820.78
2019-04-03T20:48:04.732Z,99821.30
2019-04-03T20:53:11.019Z,99812.23
2019-04-03T20:58:17.371Z,99810.27
2019-04-03T21:03:24.131Z,99808.39
2019-04-03T21:08:31.746Z,99809.02
2019-04-03T21:13:39.775Z,99811.72
2019-04-03T21:18:45.910Z,99811.42
2019-04-03T21:23:52.184Z,99816.57
2019-04-03T21:28:58.416Z,99815.24
2019-04-03T21:34:04.745Z,99806.15
2019-04-03T21:39:12.841Z,99807.81
2019-04-03T21:44:18.596Z,99804.42
2019-04-03T21:49:24.735Z,99801.83
2019-04-03T21:54:30.709Z,99804.51
2019-04-03T21:59:37.049Z,99806.77
2019-04-03T22:04:43.133Z,99813.38
2019-04-03T22:09:49.011Z,99814.59
2019-04-03T22:14:55.178Z,99807.39
2019-04-03T22:20:01.278Z,99798.84
2019-04-03T22:25:09.025Z,99804.42
2019-04-03T22:30:15.251Z,99801.42
2019-04-03T22:35:21.281Z,99798.46
2019-04-03T22:40:27.333Z,99800.81
2019-04-03T22:45:33.274Z,99802.97
2019-04-03T22:50:39.250Z,99804.83
2019-04-03T22:55:46.551Z,99785.98
2019-04-03T23:00:52.835Z,99785.07
2019-04-03T23:05:58.847Z,99780.63
2019-04-03T23:11:04.817Z,99785.98
2019-04-03T23:16:11.561Z,99782.06
2019-04-03T23:21:18.142Z,99775.58
2019-04-03T23:26:24.244Z,99770.11
2019-04-03T23:31:30.216Z,99767.01
2019-04-03T23:36:36.297Z,99765.58
2019-04-03T23:41:42.257Z,99760.92
2019-04-03T23:46:48.291Z,99751.98
2019-04-03T23:51:54.263Z,99754.55
2019-04-03T23:57:00.512Z,99747.42
